Time;durP1;ratioP1;P1;durP2;ratioP2;P2;SDS_P1;SDS_P2;PMS_P1;PMS_P2;Temp;Humidity;BMP_temperature;BMP_pressure;BME280_temperature;BME280_humidity;BME280_pressure;Samples;Min_cycle;Max_cycle;Signal;HPM_P1;HPM_P2
2024/01/20 00:02:04;;;;;;;4.93;3.70;;;;;;;;;;5091844;28;20203;-77
2024/01/20 00:04:31;;;;;;;3.97;3.57;;;;;;;;;;5091071;28;20223;-77
2024/01/20 00:06:58;;;;;;;4.43;3.13;;;;;;;;;;5091699;28;20208;-77
2024/01/20 00:09:24;;;;;;;7.97;4.00;;;;;;;;;;5091087;28;20203;-77
2024/01/20 00:11:51;;;;;;;3.47;3.17;;;;;;;;;;5091169;28;20203;-77
2024/01/20 00:14:18;;;;;;;5.43;3.70;;;;;;;;;;5090694;28;20203;-77
2024/01/20 00:16:45;;;;;;;7.43;3.50;;;;;;;;;;5091699;28;20208;-77
2024/01/20 00:19:14;;;;;;;3.40;3.10;;;;;;;;;;5090773;28;20206;-77
2024/01/20 00:21:40;;;;;;;5.70;3.67;;;;;;;;;;5091169;28;20583;-77
2024/01/20 00:24:08;;;;;;;6.43;4.10;;;;;;;;;;5090805;28;20612;-77
2024/01/20 00:26:35;;;;;;;8.30;4.20;;;;;;;;;;5091294;28;20220;-77
2024/01/20 00:29:01;;;;;;;4.73;4.00;;;;;;;;;;5090347;28;20228;-77
2024/01/20 00:31:28;;;;;;;5.23;3.43;;;;;;;;;;5091132;28;20205;-77
2024/01/20 00:33:55;;;;;;;6.27;4.03;;;;;;;;;;5090797;28;20208;-77
2024/01/20 00:36:23;;;;;;;5.77;4.13;;;;;;;;;;5090981;28;20204;-77
2024/01/20 00:38:50;;;;;;;3.87;3.40;;;;;;;;;;5090511;28;20197;-77
2024/01/20 00:41:17;;;;;;;3.93;3.57;;;;;;;;;;5091043;28;20614;-78
2024/01/20 00:43:43;;;;;;;4.00;3.57;;;;;;;;;;5090611;28;20227;-77
2024/01/20 00:46:10;;;;;;;4.77;3.23;;;;;;;;;;5090619;28;20261;-76
2024/01/20 00:48:37;;;;;;;4.30;3.90;;;;;;;;;;5090572;28;20208;-77
2024/01/20 00:51:03;;;;;;;5.30;3.73;;;;;;;;;;5090720;28;20277;-77
2024/01/20 00:53:31;;;;;;;6.00;4.07;;;;;;;;;;5091071;28;20567;-77
2024/01/20 00:55:58;;;;;;;4.80;4.17;;;;;;;;;;5090391;28;20196;-77
2024/01/20 00:58:24;;;;;;;6.40;4.13;;;;;;;;;;5090705;28;20200;-78
2024/01/20 01:00:51;;;;;;;5.80;4.03;;;;;;;;;;5090696;28;20205;-77
2024/01/20 01:03:18;;;;;;;3.83;3.07;;;;;;;;;;5090815;28;20224;-77
2024/01/20 01:05:45;;;;;;;4.07;3.17;;;;;;;;;;5090355;28;20682;-77
2024/01/20 01:08:12;;;;;;;5.47;3.53;;;;;;;;;;5090097;28;20594;-77
2024/01/20 01:10:41;;;;;;;9.43;6.10;;;;;;;;;;5090254;28;20211;-77
2024/01/20 01:13:07;;;;;;;10.43;5.70;;;;;;;;;;5090719;28;20729;-77
2024/01/20 01:15:34;;;;;;;5.17;3.63;;;;;;;;;;5090409;28;20666;-77
2024/01/20 01:18:01;;;;;;;3.87;3.07;;;;;;;;;;5094442;28;20196;-77
2024/01/20 01:20:28;;;;;;;3.37;2.70;;;;;;;;;;5094214;28;20232;-76
2024/01/20 01:22:55;;;;;;;4.47;3.30;;;;;;;;;;5094576;28;20200;-77
2024/01/20 01:25:22;;;;;;;3.03;2.47;;;;;;;;;;5095053;28;20615;-77
2024/01/20 01:27:50;;;;;;;4.87;3.03;;;;;;;;;;5094047;28;20250;-77
2024/01/20 01:30:17;;;;;;;4.17;3.00;;;;;;;;;;5094374;28;20203;-77
2024/01/20 01:32:44;;;;;;;3.93;3.50;;;;;;;;;;5094557;28;20211;-77
2024/01/20 01:35:11;;;;;;;6.87;4.00;;;;;;;;;;5094214;28;20204;-77
2024/01/20 01:37:37;;;;;;;4.97;3.97;;;;;;;;;;5094316;28;20196;-77
2024/01/20 01:40:05;;;;;;;5.70;4.97;;;;;;;;;;5093861;28;20690;-77
2024/01/20 01:42:33;;;;;;;6.23;4.50;;;;;;;;;;5094008;28;20250;-77
2024/01/20 01:45:02;;;;;;;21.63;12.33;;;;;;;;;;5093879;28;20228;-76
2024/01/20 01:47:28;;;;;;;4.23;3.83;;;;;;;;;;5094302;28;20279;-77
2024/01/20 01:49:55;;;;;;;5.00;4.33;;;;;;;;;;5094163;28;20200;-77
2024/01/20 01:52:24;;;;;;;3.33;3.03;;;;;;;;;;5105851;28;20199;-78
2024/01/20 01:54:51;;;;;;;10.17;7.53;;;;;;;;;;5095069;28;20666;-77
2024/01/20 01:57:18;;;;;;;17.17;10.30;;;;;;;;;;5094043;28;20250;-77
2024/01/20 01:59:45;;;;;;;7.60;5.53;;;;;;;;;;5093343;28;20207;-77
2024/01/20 02:02:13;;;;;;;5.43;3.87;;;;;;;;;;5094319;28;20204;-77
2024/01/20 02:04:40;;;;;;;7.90;4.70;;;;;;;;;;5093401;28;20277;-77
2024/01/20 02:07:07;;;;;;;5.70;3.50;;;;;;;;;;5093941;28;20633;-77
2024/01/20 02:09:34;;;;;;;5.27;3.90;;;;;;;;;;5092941;28;20197;-77
2024/01/20 02:12:01;;;;;;;3.40;2.13;;;;;;;;;;5093681;28;20201;-77
2024/01/20 02:14:28;;;;;;;3.73;2.67;;;;;;;;;;5093289;28;20234;-78
2024/01/20 02:16:55;;;;;;;2.30;2.10;;;;;;;;;;5093885;28;20196;-77
2024/01/20 02:19:23;;;;;;;5.53;2.90;;;;;;;;;;5093086;28;20203;-77
2024/01/20 02:21:49;;;;;;;5.67;2.40;;;;;;;;;;5093282;28;20666;-78
2024/01/20 02:24:18;;;;;;;3.50;2.23;;;;;;;;;;5093034;28;20220;-77
2024/01/20 02:26:45;;;;;;;2.43;1.80;;;;;;;;;;5093211;28;20622;-77
2024/01/20 02:29:13;;;;;;;2.43;1.60;;;;;;;;;;5092118;28;20227;-77
2024/01/20 02:31:40;;;;;;;5.70;2.60;;;;;;;;;;5092669;28;20290;-77
2024/01/20 02:34:07;;;;;;;3.47;3.03;;;;;;;;;;5092971;28;20587;-77
2024/01/20 02:36:34;;;;;;;3.37;2.87;;;;;;;;;;5093100;28;20705;-77
2024/01/20 02:39:00;;;;;;;1.97;1.83;;;;;;;;;;5092987;28;20682;-77
2024/01/20 02:41:29;;;;;;;3.07;2.17;;;;;;;;;;5093214;28;20204;-76
2024/01/20 02:43:55;;;;;;;2.10;1.90;;;;;;;;;;5092971;28;20224;-77
2024/01/20 02:46:22;;;;;;;1.67;1.57;;;;;;;;;;5092815;28;20197;-77
2024/01/20 02:48:49;;;;;;;1.70;1.60;;;;;;;;;;5092627;28;20625;-77
2024/01/20 02:51:16;;;;;;;1.77;1.67;;;;;;;;;;5092894;28;20216;-77
2024/01/20 02:53:43;;;;;;;1.70;1.60;;;;;;;;;;5092373;28;20204;-77
2024/01/20 02:56:09;;;;;;;2.00;1.80;;;;;;;;;;5092456;28;20682;-77
2024/01/20 02:58:37;;;;;;;4.07;2.33;;;;;;;;;;5092940;28;20211;-77
2024/01/20 03:01:06;;;;;;;3.90;2.40;;;;;;;;;;5092373;28;20204;-77
2024/01/20 03:03:33;;;;;;;2.80;2.07;;;;;;;;;;5092477;28;20199;-76
2024/01/20 03:06:00;;;;;;;1.80;1.70;;;;;;;;;;5092838;28;20631;-77
2024/01/20 03:08:27;;;;;;;1.63;1.53;;;;;;;;;;5092688;28;20211;-77
2024/01/20 03:10:54;;;;;;;2.33;2.00;;;;;;;;;;5092179;28;20207;-77
2024/01/20 03:13:21;;;;;;;3.13;2.20;;;;;;;;;;5092306;28;20209;-76
2024/01/20 03:15:49;;;;;;;2.33;2.13;;;;;;;;;;5092626;28;20203;-77
2024/01/20 03:18:16;;;;;;;2.40;2.13;;;;;;;;;;5092043;28;20204;-77
2024/01/20 03:20:43;;;;;;;1.87;1.63;;;;;;;;;;5092558;28;20192;-77
2024/01/20 03:23:09;;;;;;;1.40;1.30;;;;;;;;;;5092089;28;20197;-77
2024/01/20 03:25:36;;;;;;;1.40;1.30;;;;;;;;;;5091933;28;20223;-77
2024/01/20 03:28:03;;;;;;;1.70;1.60;;;;;;;;;;5091937;28;20694;-77
2024/01/20 03:30:30;;;;;;;2.13;1.60;;;;;;;;;;5091852;28;20219;-77
2024/01/20 03:32:58;;;;;;;1.67;1.30;;;;;;;;;;5091855;28;20827;-76
2024/01/20 03:35:25;;;;;;;2.80;1.40;;;;;;;;;;5092281;28;20220;-77
2024/01/20 03:37:55;;;;;;;1.43;1.33;;;;;;;;;;5091799;28;20597;-77
2024/01/20 03:40:22;;;;;;;1.77;1.40;;;;;;;;;;5091201;28;20200;-77
2024/01/20 03:42:48;;;;;;;2.40;1.53;;;;;;;;;;5091500;28;20204;-77
2024/01/20 03:45:15;;;;;;;2.20;1.50;;;;;;;;;;5091687;28;20216;-77
2024/01/20 03:47:42;;;;;;;1.73;1.60;;;;;;;;;;5091492;28;20717;-77
2024/01/20 03:50:10;;;;;;;1.70;1.60;;;;;;;;;;5091321;28;20261;-77
2024/01/20 03:52:37;;;;;;;1.80;1.70;;;;;;;;;;5091462;28;20682;-77
2024/01/20 03:55:05;;;;;;;2.13;1.67;;;;;;;;;;5090929;28;20200;-77
2024/01/20 03:57:32;;;;;;;1.87;1.67;;;;;;;;;;5091251;28;20678;-77
2024/01/20 03:59:59;;;;;;;1.63;1.53;;;;;;;;;;5091729;28;20200;-77
2024/01/20 04:02:25;;;;;;;1.40;1.30;;;;;;;;;;5091920;28;20205;-77
2024/01/20 04:04:55;;;;;;;1.50;1.40;;;;;;;;;;5091033;28;20223;-77
2024/01/20 04:07:23;;;;;;;1.73;1.63;;;;;;;;;;5091151;28;20283;-78
2024/01/20 04:09:50;;;;;;;2.00;1.77;;;;;;;;;;5078406;28;20253;-77
2024/01/20 04:12:17;;;;;;;2.53;1.90;;;;;;;;;;5091538;28;20200;-77
2024/01/20 04:14:44;;;;;;;1.60;1.50;;;;;;;;;;5090946;28;20239;-77
2024/01/20 04:17:11;;;;;;;2.27;1.47;;;;;;;;;;5091208;28;20211;-77
2024/01/20 04:19:38;;;;;;;2.00;1.80;;;;;;;;;;5090948;28;20204;-77
2024/01/20 04:22:05;;;;;;;1.53;1.43;;;;;;;;;;5091458;28;20200;-77
2024/01/20 04:24:32;;;;;;;1.60;1.50;;;;;;;;;;5090790;28;20216;-77
2024/01/20 04:26:59;;;;;;;30.77;18.37;;;;;;;;;;5091037;28;20667;-77
2024/01/20 04:29:25;;;;;;;5.57;2.93;;;;;;;;;;5091006;28;20580;-77
2024/01/20 04:31:55;;;;;;;9.17;4.50;;;;;;;;;;5091046;28;20666;-77
2024/01/20 04:34:21;;;;;;;4.00;2.03;;;;;;;;;;5085916;28;20295;-78
2024/01/20 04:36:48;;;;;;;4.80;2.93;;;;;;;;;;5090322;28;20200;-77
2024/01/20 04:39:15;;;;;;;1.77;1.67;;;;;;;;;;5077732;28;20204;-78
2024/01/20 04:41:43;;;;;;;1.27;1.23;;;;;;;;;;5090041;28;20658;-78
2024/01/20 04:44:10;;;;;;;1.73;1.63;;;;;;;;;;5090454;28;20204;-78
2024/01/20 04:46:37;;;;;;;2.17;1.80;;;;;;;;;;5090769;28;20204;-78
2024/01/20 04:49:03;;;;;;;1.50;1.40;;;;;;;;;;5090542;28;20196;-78
2024/01/20 04:51:30;;;;;;;1.70;1.60;;;;;;;;;;5090346;28;20254;-78
2024/01/20 04:53:57;;;;;;;2.43;1.70;;;;;;;;;;5090192;28;20283;-78
2024/01/20 04:56:24;;;;;;;1.70;1.60;;;;;;;;;;5090349;28;20211;-78
2024/01/20 04:58:55;;;;;;;3.00;1.90;;;;;;;;;;5090346;28;20208;-78
2024/01/20 05:01:21;;;;;;;2.33;1.90;;;;;;;;;;5090579;28;20202;-79
2024/01/20 05:03:48;;;;;;;2.70;1.67;;;;;;;;;;5090233;28;20207;-76
2024/01/20 05:06:15;;;;;;;1.80;1.70;;;;;;;;;;5090141;28;20231;-78
2024/01/20 05:08:42;;;;;;;2.83;1.90;;;;;;;;;;5090642;28;20207;-77
2024/01/20 05:11:08;;;;;;;2.03;1.83;;;;;;;;;;5090797;28;20199;-77
2024/01/20 05:13:35;;;;;;;2.43;2.23;;;;;;;;;;5090510;28;20200;-76
2024/01/20 05:16:04;;;;;;;1.60;1.50;;;;;;;;;;5090215;28;20620;-77
2024/01/20 05:18:33;;;;;;;1.50;1.40;;;;;;;;;;5090606;28;20211;-77
2024/01/20 05:20:59;;;;;;;2.27;1.30;;;;;;;;;;5090194;28;20206;-77
2024/01/20 05:23:26;;;;;;;1.33;1.20;;;;;;;;;;5090031;28;20728;-77
2024/01/20 05:25:56;;;;;;;3.17;2.43;;;;;;;;;;5090272;28;20231;-77
2024/01/20 05:28:23;;;;;;;1.10;1.10;;;;;;;;;;5090358;28;20586;-77
2024/01/20 05:30:50;;;;;;;0.80;0.80;;;;;;;;;;5090172;28;20204;-75
2024/01/20 05:33:18;;;;;;;1.30;1.30;;;;;;;;;;5089674;28;20205;-76
2024/01/20 05:35:44;;;;;;;1.43;0.90;;;;;;;;;;5089538;28;20215;-76
2024/01/20 05:38:11;;;;;;;1.13;1.03;;;;;;;;;;5090484;28;20204;-77
2024/01/20 05:40:38;;;;;;;0.93;0.90;;;;;;;;;;5089388;28;20207;-76
2024/01/20 05:43:06;;;;;;;0.70;0.70;;;;;;;;;;5090311;28;20201;-77
2024/01/20 05:45:33;;;;;;;1.27;0.90;;;;;;;;;;5090116;28;20311;-77
2024/01/20 05:47:59;;;;;;;1.17;0.87;;;;;;;;;;5090102;28;20207;-77
2024/01/20 05:50:28;;;;;;;0.80;0.80;;;;;;;;;;5090309;28;20200;-77
2024/01/20 05:52:54;;;;;;;0.70;0.70;;;;;;;;;;5089947;28;20257;-77
2024/01/20 05:55:21;;;;;;;1.07;0.90;;;;;;;;;;5090311;28;20652;-77
2024/01/20 05:57:48;;;;;;;1.00;1.00;;;;;;;;;;5090263;28;20215;-77
2024/01/20 06:00:17;;;;;;;0.90;0.90;;;;;;;;;;5090431;28;20636;-77
2024/01/20 06:02:44;;;;;;;1.83;1.10;;;;;;;;;;5090884;28;20196;-77
2024/01/20 06:05:11;;;;;;;0.70;0.70;;;;;;;;;;5093862;28;20319;-77
2024/01/20 06:07:39;;;;;;;0.80;0.80;;;;;;;;;;5093358;28;20242;-78
2024/01/20 06:10:07;;;;;;;0.97;0.90;;;;;;;;;;5093622;28;20215;-78
2024/01/20 06:12:33;;;;;;;0.80;0.80;;;;;;;;;;5093778;28;20305;-77
2024/01/20 06:15:00;;;;;;;0.60;0.60;;;;;;;;;;5093622;28;20205;-78
2024/01/20 06:17:27;;;;;;;0.70;0.70;;;;;;;;;;5093594;28;20196;-78
2024/01/20 06:19:57;;;;;;;1.73;1.57;;;;;;;;;;5093795;28;20200;-78
2024/01/20 06:22:24;;;;;;;13.57;6.77;;;;;;;;;;5093035;28;20211;-78
2024/01/20 06:24:54;;;;;;;0.90;0.90;;;;;;;;;;5093070;28;20295;-78
2024/01/20 06:27:21;;;;;;;7.23;3.50;;;;;;;;;;5089847;28;20292;-79
2024/01/20 06:29:48;;;;;;;1.43;0.97;;;;;;;;;;5085814;28;20216;-78
2024/01/20 06:32:15;;;;;;;4.90;2.63;;;;;;;;;;5092949;28;20201;-78
2024/01/20 06:34:42;;;;;;;1.53;1.43;;;;;;;;;;5093040;28;20200;-78
2024/01/20 06:37:09;;;;;;;1.27;1.07;;;;;;;;;;5093080;28;20201;-78
2024/01/20 06:39:39;;;;;;;1.10;0.60;;;;;;;;;;5092965;28;20736;-78
2024/01/20 06:42:07;;;;;;;2.60;1.77;;;;;;;;;;5093192;28;20200;-78
2024/01/20 06:44:34;;;;;;;0.90;0.90;;;;;;;;;;5092986;28;20204;-78
2024/01/20 06:47:00;;;;;;;2.87;2.23;;;;;;;;;;5093069;28;20227;-78
2024/01/20 06:49:27;;;;;;;1.20;1.10;;;;;;;;;;5092759;28;20249;-79
2024/01/20 06:51:54;;;;;;;0.60;0.60;;;;;;;;;;5092512;28;20200;-76
2024/01/20 06:54:21;;;;;;;1.00;1.00;;;;;;;;;;5092553;28;20686;-78
2024/01/20 06:56:47;;;;;;;1.23;1.00;;;;;;;;;;5092992;28;20193;-78
2024/01/20 06:59:15;;;;;;;1.40;1.30;;;;;;;;;;5092353;28;20200;-78
2024/01/20 07:01:42;;;;;;;1.00;0.90;;;;;;;;;;5092637;28;20200;-78
2024/01/20 07:04:09;;;;;;;0.80;0.80;;;;;;;;;;5092410;28;20207;-78
2024/01/20 07:06:36;;;;;;;0.70;0.70;;;;;;;;;;5092460;28;20690;-78
2024/01/20 07:09:05;;;;;;;0.60;0.60;;;;;;;;;;5091523;28;20675;-78
2024/01/20 07:11:32;;;;;;;0.80;0.80;;;;;;;;;;5092406;28;20199;-78
2024/01/20 07:13:59;;;;;;;0.70;0.70;;;;;;;;;;5091604;28;20208;-78
2024/01/20 07:16:27;;;;;;;0.70;0.70;;;;;;;;;;5092324;28;20204;-78
2024/01/20 07:18:56;;;;;;;1.03;1.03;;;;;;;;;;5092411;28;20208;-78
2024/01/20 07:21:23;;;;;;;1.37;1.20;;;;;;;;;;5092254;28;20265;-78
2024/01/20 07:23:50;;;;;;;0.83;0.83;;;;;;;;;;5091971;28;20207;-78
2024/01/20 07:26:17;;;;;;;1.03;0.97;;;;;;;;;;5091949;28;20216;-78
2024/01/20 07:28:44;;;;;;;0.70;0.70;;;;;;;;;;5091826;28;20226;-78
2024/01/20 07:31:10;;;;;;;1.17;1.13;;;;;;;;;;5092497;28;20204;-79
2024/01/20 07:33:40;;;;;;;0.73;0.73;;;;;;;;;;5092323;28;20204;-78
2024/01/20 07:36:07;;;;;;;0.97;0.90;;;;;;;;;;5092548;28;20234;-78
2024/01/20 07:38:34;;;;;;;0.90;0.90;;;;;;;;;;5091655;28;20192;-78
2024/01/20 07:41:02;;;;;;;0.83;0.83;;;;;;;;;;5092024;28;20204;-78
2024/01/20 07:43:29;;;;;;;0.90;0.90;;;;;;;;;;5090531;28;20204;-78
2024/01/20 07:45:56;;;;;;;1.00;1.00;;;;;;;;;;5089680;28;20698;-80
2024/01/20 07:48:23;;;;;;;3.00;1.37;;;;;;;;;;5091339;28;20204;-80
2024/01/20 07:50:51;;;;;;;0.60;0.60;;;;;;;;;;5091788;28;20565;-80
2024/01/20 07:53:18;;;;;;;0.60;0.60;;;;;;;;;;5091299;28;20241;-77
2024/01/20 07:55:45;;;;;;;1.07;1.00;;;;;;;;;;5091940;28;20200;-81
2024/01/20 07:58:14;;;;;;;0.83;0.83;;;;;;;;;;5091286;28;20212;-79
2024/01/20 08:00:42;;;;;;;0.90;0.90;;;;;;;;;;5091416;28;20204;-81
2024/01/20 08:03:08;;;;;;;0.87;0.83;;;;;;;;;;5091553;28;20200;-80
2024/01/20 08:05:35;;;;;;;0.83;0.83;;;;;;;;;;5091364;28;20231;-81
2024/01/20 08:08:04;;;;;;;1.20;1.10;;;;;;;;;;5091220;28;20200;-80
2024/01/20 08:10:31;;;;;;;0.70;0.70;;;;;;;;;;5091328;28;20212;-81
2024/01/20 08:12:57;;;;;;;1.13;1.07;;;;;;;;;;5091162;28;20585;-79
2024/01/20 08:15:24;;;;;;;1.37;1.03;;;;;;;;;;5091493;28;20212;-80
2024/01/20 08:17:51;;;;;;;1.23;1.07;;;;;;;;;;5091239;28;20200;-80
2024/01/20 08:20:18;;;;;;;0.90;0.90;;;;;;;;;;5089237;28;21901;-81
2024/01/20 08:22:45;;;;;;;0.80;0.80;;;;;;;;;;5091006;28;20204;-79
2024/01/20 08:25:15;;;;;;;0.87;0.87;;;;;;;;;;5090551;28;20211;-80
2024/01/20 08:27:42;;;;;;;0.93;0.90;;;;;;;;;;5089844;28;20196;-79
2024/01/20 08:30:09;;;;;;;1.10;1.10;;;;;;;;;;5091500;28;20227;-80
2024/01/20 08:32:37;;;;;;;1.00;1.00;;;;;;;;;;5077667;28;20197;-80
2024/01/20 08:35:04;;;;;;;1.20;1.20;;;;;;;;;;5090990;28;20287;-78
2024/01/20 08:37:31;;;;;;;1.03;1.03;;;;;;;;;;5091205;28;20212;-78
2024/01/20 08:39:58;;;;;;;1.10;1.10;;;;;;;;;;5090420;28;20192;-78
2024/01/20 08:42:26;;;;;;;1.00;1.00;;;;;;;;;;5090979;28;20211;-78
2024/01/20 08:44:53;;;;;;;1.00;1.00;;;;;;;;;;5090044;28;20986;-78
2024/01/20 08:47:20;;;;;;;1.13;1.07;;;;;;;;;;5090544;28;20232;-79
2024/01/20 08:49:51;;;;;;;1.00;1.00;;;;;;;;;;5090944;28;20200;-77
2024/01/20 08:52:18;;;;;;;1.03;1.03;;;;;;;;;;5092072;28;20200;-79
2024/01/20 08:54:45;;;;;;;1.40;1.30;;;;;;;;;;5090323;28;20218;-79
2024/01/20 08:57:11;;;;;;;2.10;1.40;;;;;;;;;;5090793;28;20201;-79
2024/01/20 08:59:40;;;;;;;1.20;1.10;;;;;;;;;;5090756;28;20942;-79
2024/01/20 09:02:07;;;;;;;1.47;1.37;;;;;;;;;;5091009;28;20217;-78
2024/01/20 09:04:34;;;;;;;1.07;1.07;;;;;;;;;;5090265;28;20204;-79
2024/01/20 09:07:01;;;;;;;1.30;1.20;;;;;;;;;;5090317;28;20257;-79
2024/01/20 09:09:28;;;;;;;1.13;1.03;;;;;;;;;;5090744;28;20201;-79
2024/01/20 09:11:56;;;;;;;0.87;0.87;;;;;;;;;;5090701;28;20205;-79
2024/01/20 09:14:23;;;;;;;1.57;1.47;;;;;;;;;;5090312;28;20691;-79
2024/01/20 09:16:51;;;;;;;1.27;1.20;;;;;;;;;;5090264;28;20573;-80
2024/01/20 09:19:17;;;;;;;1.10;1.10;;;;;;;;;;5090358;28;20203;-79
2024/01/20 09:21:45;;;;;;;1.87;1.77;;;;;;;;;;5088794;28;20681;-82
2024/01/20 09:24:14;;;;;;;1.60;1.50;;;;;;;;;;5090019;28;20281;-80
2024/01/20 09:26:41;;;;;;;1.00;1.00;;;;;;;;;;5090465;28;20235;-80
2024/01/20 09:29:08;;;;;;;1.10;1.10;;;;;;;;;;5090470;28;20220;-80
2024/01/20 09:31:35;;;;;;;1.50;1.40;;;;;;;;;;5090445;28;20208;-81
2024/01/20 09:34:03;;;;;;;2.17;1.13;;;;;;;;;;5076668;28;20204;-78
2024/01/20 09:36:31;;;;;;;1.33;1.23;;;;;;;;;;5090746;28;20210;-80
2024/01/20 09:38:57;;;;;;;0.90;0.90;;;;;;;;;;5093403;28;20203;-79
2024/01/20 09:41:25;;;;;;;1.10;1.10;;;;;;;;;;5094333;28;20274;-79
2024/01/20 09:43:52;;;;;;;0.90;0.90;;;;;;;;;;5093782;28;20208;-80
2024/01/20 09:46:19;;;;;;;1.37;1.27;;;;;;;;;;5093801;28;20224;-81
2024/01/20 09:48:46;;;;;;;1.00;1.00;;;;;;;;;;5102469;28;20210;-80
2024/01/20 09:51:14;;;;;;;1.63;1.53;;;;;;;;;;5102897;28;20200;-81
2024/01/20 09:53:42;;;;;;;6.80;3.90;;;;;;;;;;5093880;28;20254;-81
2024/01/20 09:56:09;;;;;;;0.97;0.97;;;;;;;;;;5093976;28;20214;-81
2024/01/20 09:58:36;;;;;;;1.03;1.03;;;;;;;;;;5093571;28;20700;-80
2024/01/20 10:01:03;;;;;;;1.10;1.10;;;;;;;;;;5093716;28;20212;-79
2024/01/20 10:03:31;;;;;;;1.77;1.37;;;;;;;;;;5093143;28;20200;-79
2024/01/20 10:05:59;;;;;;;1.60;1.50;;;;;;;;;;5093262;28;20204;-79
2024/01/20 10:08:27;;;;;;;1.10;1.10;;;;;;;;;;5093419;28;20200;-80
2024/01/20 10:11:03;;;;;;;0.97;0.97;;;;;;;;;;5093255;28;20650;-79
2024/01/20 10:13:30;;;;;;;1.27;1.17;;;;;;;;;;5093164;28;20215;-80
2024/01/20 10:15:57;;;;;;;1.07;1.07;;;;;;;;;;5086248;28;20276;-81
2024/01/20 10:18:24;;;;;;;1.10;1.03;;;;;;;;;;5093738;28;20208;-80
2024/01/20 10:21:01;;;;;;;0.90;0.90;;;;;;;;;;5093544;28;20204;-81
2024/01/20 10:23:30;;;;;;;1.33;1.23;;;;;;;;;;5092684;28;20595;-80
2024/01/20 10:26:01;;;;;;;12.93;6.20;;;;;;;;;;5089657;28;20687;-78
2024/01/20 10:28:28;;;;;;;0.87;0.87;;;;;;;;;;5086805;28;20224;-80
2024/01/20 10:30:54;;;;;;;1.00;0.90;;;;;;;;;;5092651;28;20203;-80
2024/01/20 10:33:22;;;;;;;12.27;6.13;;;;;;;;;;5092772;28;20218;-81
2024/01/20 10:35:50;;;;;;;2.17;1.80;;;;;;;;;;5091969;28;20663;-83
2024/01/20 10:38:20;;;;;;;1.40;1.30;;;;;;;;;;5093703;28;20211;-82
2024/01/20 10:40:51;;;;;;;1.10;1.10;;;;;;;;;;5090855;28;20204;-82
2024/01/20 10:43:18;;;;;;;1.10;1.10;;;;;;;;;;5082898;28;20693;-82
2024/01/20 10:45:48;;;;;;;0.90;0.90;;;;;;;;;;5092848;28;20205;-82
2024/01/20 10:48:20;;;;;;;1.40;1.30;;;;;;;;;;5092910;28;20216;-80
2024/01/20 10:50:53;;;;;;;1.17;1.17;;;;;;;;;;5079127;28;20622;-81
2024/01/20 10:53:21;;;;;;;1.13;1.03;;;;;;;;;;5090566;28;20200;-82
2024/01/20 10:55:50;;;;;;;1.33;1.20;;;;;;;;;;5090534;28;20580;-82
2024/01/20 10:58:20;;;;;;;1.37;1.27;;;;;;;;;;5092692;28;20214;-82
2024/01/20 11:00:47;;;;;;;1.17;1.10;;;;;;;;;;5086357;28;20196;-82
2024/01/20 11:03:15;;;;;;;2.10;1.80;;;;;;;;;;5092816;28;20203;-83
2024/01/20 11:05:46;;;;;;;1.60;1.33;;;;;;;;;;5092848;28;20568;-82
2024/01/20 11:08:13;;;;;;;1.07;1.07;;;;;;;;;;5092794;28;20231;-83
2024/01/20 11:10:41;;;;;;;1.00;1.00;;;;;;;;;;5093050;28;20208;-81
2024/01/20 11:13:11;;;;;;;1.20;1.10;;;;;;;;;;5092635;28;20196;-82
2024/01/20 11:15:40;;;;;;;1.30;1.20;;;;;;;;;;5092944;28;20207;-82
2024/01/20 11:18:16;;;;;;;1.17;1.10;;;;;;;;;;5092831;28;20200;-82
2024/01/20 11:20:54;;;;;;;2.17;1.10;;;;;;;;;;5092646;28;20674;-81
2024/01/20 11:23:21;;;;;;;1.00;1.00;;;;;;;;;;5084764;28;20264;-82
2024/01/20 11:25:51;;;;;;;0.80;0.80;;;;;;;;;;5092413;28;20246;-82
2024/01/20 11:28:26;;;;;;;0.70;0.70;;;;;;;;;;5092731;28;20244;-82
2024/01/20 11:30:53;;;;;;;1.30;1.20;;;;;;;;;;5080472;28;20607;-82
2024/01/20 11:33:20;;;;;;;1.00;1.00;;;;;;;;;;5092360;28;20629;-82
2024/01/20 11:35:46;;;;;;;1.07;1.07;;;;;;;;;;5092465;28;20211;-82
2024/01/20 11:38:16;;;;;;;0.70;0.70;;;;;;;;;;5090361;28;20209;-82
2024/01/20 11:40:43;;;;;;;1.20;1.17;;;;;;;;;;5081702;28;20670;-81
2024/01/20 11:43:11;;;;;;;2.30;2.10;;;;;;;;;;5091865;28;20305;-81
2024/01/20 11:45:39;;;;;;;1.07;1.07;;;;;;;;;;5092374;28;20208;-82
2024/01/20 11:48:07;;;;;;;1.17;1.07;;;;;;;;;;5089794;28;20224;-83
2024/01/20 11:50:34;;;;;;;0.60;0.60;;;;;;;;;;5091767;28;20200;-83
2024/01/20 11:53:01;;;;;;;0.87;0.87;;;;;;;;;;5092135;28;20207;-82
2024/01/20 11:55:28;;;;;;;0.60;0.60;;;;;;;;;;5092164;28;20253;-83
2024/01/20 11:57:55;;;;;;;0.60;0.60;;;;;;;;;;5091534;28;20208;-82
2024/01/20 12:00:22;;;;;;;0.90;0.90;;;;;;;;;;5091922;28;20214;-83
2024/01/20 12:02:51;;;;;;;0.97;0.97;;;;;;;;;;5091376;28;20199;-83
2024/01/20 12:05:18;;;;;;;0.80;0.80;;;;;;;;;;5091906;28;20204;-81
2024/01/20 12:07:44;;;;;;;0.60;0.60;;;;;;;;;;5091490;28;20228;-81
2024/01/20 12:10:11;;;;;;;0.73;0.73;;;;;;;;;;5091142;28;20200;-82
2024/01/20 12:12:39;;;;;;;0.70;0.70;;;;;;;;;;5090978;28;20290;-82
2024/01/20 12:15:08;;;;;;;0.90;0.90;;;;;;;;;;5091692;28;20279;-82
2024/01/20 12:17:34;;;;;;;1.07;1.07;;;;;;;;;;5091256;28;20585;-80
2024/01/20 12:20:03;;;;;;;1.17;1.10;;;;;;;;;;5090925;28;20279;-82
2024/01/20 12:22:32;;;;;;;2.07;1.87;;;;;;;;;;5091293;28;20631;-81
2024/01/20 12:24:59;;;;;;;1.30;1.20;;;;;;;;;;5090852;28;20236;-82
2024/01/20 12:27:26;;;;;;;0.80;0.80;;;;;;;;;;5090912;28;20307;-82
2024/01/20 12:29:53;;;;;;;0.80;0.80;;;;;;;;;;5086457;28;20225;-85
2024/01/20 12:32:19;;;;;;;1.37;1.10;;;;;;;;;;5083449;28;20607;-83
2024/01/20 12:34:46;;;;;;;0.70;0.70;;;;;;;;;;5090815;28;20283;-80
2024/01/20 12:37:15;;;;;;;1.60;1.50;;;;;;;;;;5089763;28;20690;-82
2024/01/20 12:39:43;;;;;;;0.57;0.57;;;;;;;;;;5090348;28;20204;-81
2024/01/20 12:42:09;;;;;;;0.97;0.97;;;;;;;;;;5090750;28;20717;-81
2024/01/20 12:44:36;;;;;;;1.00;1.00;;;;;;;;;;5091189;28;20204;-82
2024/01/20 12:47:04;;;;;;;0.70;0.70;;;;;;;;;;5090695;28;20216;-81
2024/01/20 12:49:33;;;;;;;1.17;1.17;;;;;;;;;;5089889;28;20287;-82
2024/01/20 12:52:00;;;;;;;1.10;1.00;;;;;;;;;;5090512;28;20193;-82
2024/01/20 12:54:28;;;;;;;14.37;7.47;;;;;;;;;;5090623;28;20204;-82
2024/01/20 12:56:55;;;;;;;1.60;1.50;;;;;;;;;;5091017;28;20660;-82
2024/01/20 12:59:22;;;;;;;1.73;1.63;;;;;;;;;;5090316;28;20200;-80
2024/01/20 13:01:51;;;;;;;1.53;1.43;;;;;;;;;;5090801;28;20215;-81
2024/01/20 13:04:17;;;;;;;0.90;0.90;;;;;;;;;;5090871;28;20215;-82
2024/01/20 13:06:48;;;;;;;2.73;1.80;;;;;;;;;;5090149;28;20226;-81
2024/01/20 13:09:16;;;;;;;2.63;1.53;;;;;;;;;;5090376;28;20216;-82
2024/01/20 13:11:44;;;;;;;8.70;4.90;;;;;;;;;;5090470;28;20196;-82
2024/01/20 13:14:11;;;;;;;5.30;4.43;;;;;;;;;;5094297;28;20682;-81
2024/01/20 13:16:37;;;;;;;1.20;1.10;;;;;;;;;;5094612;28;20670;-88
2024/01/20 13:19:05;;;;;;;5.07;3.10;;;;;;;;;;5096258;28;20211;-88
2024/01/20 13:21:32;;;;;;;12.50;6.87;;;;;;;;;;5094712;28;20207;-84
2024/01/20 13:23:59;;;;;;;2.07;1.87;;;;;;;;;;5094868;28;20629;-85
2024/01/20 13:26:26;;;;;;;1.27;1.17;;;;;;;;;;5095381;28;20670;-84
2024/01/20 13:28:54;;;;;;;6.17;3.70;;;;;;;;;;5094610;28;20236;-85
2024/01/20 13:31:21;;;;;;;3.30;1.63;;;;;;;;;;5093955;28;20211;-85
2024/01/20 13:33:48;;;;;;;0.60;0.60;;;;;;;;;;5095081;28;20257;-85
2024/01/20 13:36:16;;;;;;;1.20;1.10;;;;;;;;;;5095271;28;20204;-84
2024/01/20 13:38:43;;;;;;;1.10;1.10;;;;;;;;;;5094295;28;20261;-84
2024/01/20 13:41:10;;;;;;;0.97;0.97;;;;;;;;;;5094839;28;20275;-84
2024/01/20 13:43:37;;;;;;;0.70;0.70;;;;;;;;;;5093815;28;20662;-84
2024/01/20 13:46:05;;;;;;;3.00;2.60;;;;;;;;;;5094814;28;20204;-85
2024/01/20 13:48:32;;;;;;;1.00;1.00;;;;;;;;;;5081375;28;20220;-84
2024/01/20 13:50:59;;;;;;;0.93;0.90;;;;;;;;;;5094796;28;20208;-84
2024/01/20 13:53:26;;;;;;;1.53;1.33;;;;;;;;;;5094596;28;20227;-85
2024/01/20 13:55:53;;;;;;;0.60;0.60;;;;;;;;;;5094608;28;20281;-83
2024/01/20 13:58:19;;;;;;;0.83;0.83;;;;;;;;;;5094437;28;20202;-84
2024/01/20 14:00:46;;;;;;;0.83;0.83;;;;;;;;;;5093730;28;20208;-81
2024/01/20 14:03:20;;;;;;;0.93;0.80;;;;;;;;;;5093334;28;20219;-82
2024/01/20 14:05:49;;;;;;;1.73;1.63;;;;;;;;;;5093874;28;20210;-82
2024/01/20 14:08:16;;;;;;;1.00;1.00;;;;;;;;;;5093336;28;20266;-81
2024/01/20 14:10:43;;;;;;;1.43;1.20;;;;;;;;;;5094010;28;20286;-82
2024/01/20 14:13:09;;;;;;;0.97;0.97;;;;;;;;;;5093394;28;20193;-82
2024/01/20 14:15:38;;;;;;;1.53;1.30;;;;;;;;;;5093505;28;20208;-82
2024/01/20 14:18:07;;;;;;;0.70;0.70;;;;;;;;;;5093522;28;20208;-83
2024/01/20 14:20:35;;;;;;;1.70;1.60;;;;;;;;;;5093366;28;20200;-82
2024/01/20 14:23:04;;;;;;;1.47;1.40;;;;;;;;;;5093310;28;20201;-82
2024/01/20 14:25:33;;;;;;;0.77;0.77;;;;;;;;;;5093715;28;20671;-83
2024/01/20 14:28:00;;;;;;;1.27;1.17;;;;;;;;;;5092922;28;20223;-83
2024/01/20 14:30:27;;;;;;;0.80;0.80;;;;;;;;;;5093220;28;20197;-82
2024/01/20 14:32:54;;;;;;;0.87;0.87;;;;;;;;;;5093339;28;20226;-83
2024/01/20 14:35:21;;;;;;;0.90;0.90;;;;;;;;;;5093367;28;20579;-83
2024/01/20 14:37:49;;;;;;;1.20;1.10;;;;;;;;;;5093213;28;20212;-82
2024/01/20 14:40:16;;;;;;;0.80;0.80;;;;;;;;;;5093406;28;20204;-83
2024/01/20 14:42:43;;;;;;;0.90;0.90;;;;;;;;;;5093082;28;20213;-83
2024/01/20 14:45:10;;;;;;;0.80;0.80;;;;;;;;;;5093417;28;20200;-83